createdAt,value
2023-05-19T00:00:25.012Z,101472.16
2023-05-19T00:03:13.216Z,101470.47
2023-05-19T00:05:45.825Z,101469.23
2023-05-19T00:08:13.515Z,101469.18
2023-05-19T00:10:41.818Z,101471.25
2023-05-19T00:13:09.889Z,101470.67
2023-05-19T00:15:38.344Z,101469.36
2023-05-19T00:18:09.130Z,101473.31
2023-05-19T00:20:38.286Z,101478.23
2023-05-19T00:23:06.045Z,101478.23
2023-05-19T00:25:33.987Z,101480.86
2023-05-19T00:28:03.309Z,101477.08
2023-05-19T00:30:31.394Z,101478.76
2023-05-19T00:32:59.527Z,101481.83
2023-05-19T00:35:27.529Z,101479.11
2023-05-19T00:37:55.644Z,101479.10
2023-05-19T00:40:24.627Z,101477.91
2023-05-19T00:42:52.688Z,101480.02
2023-05-19T00:45:20.951Z,101480.58
2023-05-19T00:47:49.994Z,101478.39
2023-05-19T00:50:17.901Z,101478.08
2023-05-19T00:52:45.937Z,101480.46
2023-05-19T00:55:14.828Z,101484.10
2023-05-19T00:57:43.988Z,101484.46
2023-05-19T01:00:12.607Z,101483.75
2023-05-19T01:02:40.969Z,101485.33
2023-05-19T01:05:09.710Z,101484.83
2023-05-19T01:07:38.229Z,101485.08
2023-05-19T01:10:06.932Z,101479.95
2023-05-19T01:12:35.090Z,101478.60
2023-05-19T01:15:05.702Z,101476.29
2023-05-19T01:17:43.321Z,101476.25
2023-05-19T01:20:35.533Z,101475.09
2023-05-19T01:23:09.530Z,101472.77
2023-05-19T01:25:59.109Z,101477.80
2023-05-19T01:29:04.899Z,101480.73
2023-05-19T01:31:33.584Z,101482.27
2023-05-19T01:34:01.635Z,101481.33
2023-05-19T01:36:30.111Z,101481.80
2023-05-19T01:38:58.820Z,101483.56
2023-05-19T01:41:28.702Z,101487.98
2023-05-19T01:43:57.195Z,101489.14
2023-05-19T01:46:25.251Z,101485.59
2023-05-19T01:48:53.650Z,101484.69
2023-05-19T01:51:21.638Z,101485.86
2023-05-19T01:53:49.402Z,101485.30
2023-05-19T01:56:22.648Z,101482.86
2023-05-19T01:59:00.017Z,101484.27
2023-05-19T02:01:31.381Z,101483.92
2023-05-19T02:04:40.284Z,101487.09
2023-05-19T02:07:17.516Z,101481.86
2023-05-19T02:09:51.860Z,101483.14
2023-05-19T02:12:25.241Z,101482.67
2023-05-19T02:15:16.907Z,101483.73
2023-05-19T02:17:50.810Z,101480.95
2023-05-19T02:20:19.106Z,101482.77
2023-05-19T02:22:46.898Z,101484.25
2023-05-19T02:25:14.907Z,101483.36
2023-05-19T02:27:42.864Z,101481.80
2023-05-19T02:30:10.992Z,101479.94
2023-05-19T02:32:38.894Z,101478.29
2023-05-19T02:35:06.855Z,101475.38
2023-05-19T02:37:35.588Z,101474.75
2023-05-19T02:40:04.468Z,101472.79
2023-05-19T02:42:32.155Z,101470.70
2023-05-19T02:45:00.511Z,101473.38
2023-05-19T02:47:28.509Z,101467.83
2023-05-19T02:49:56.345Z,101468.75
2023-05-19T02:52:24.268Z,101470.35
2023-05-19T02:54:52.236Z,101473.31
2023-05-19T02:57:20.161Z,101473.97
2023-05-19T02:59:48.165Z,101467.89
2023-05-19T03:02:16.071Z,101462.02
2023-05-19T03:04:44.130Z,101460.46
2023-05-19T03:07:14.391Z,101466.17
2023-05-19T03:09:42.530Z,101465.41
2023-05-19T03:12:10.522Z,101466.41
2023-05-19T03:14:38.714Z,101468.25
2023-05-19T03:17:10.925Z,101466.97
2023-05-19T03:19:38.687Z,101467.96
2023-05-19T03:22:06.618Z,101469.89
2023-05-19T03:24:34.756Z,101470.48
2023-05-19T03:27:02.986Z,101467.81
2023-05-19T03:29:31.258Z,101467.95
2023-05-19T03:31:59.956Z,101467.29
2023-05-19T03:34:28.082Z,101464.07
2023-05-19T03:36:57.240Z,101463.11
2023-05-19T03:39:25.219Z,101460.45
2023-05-19T03:41:53.014Z,101457.05
2023-05-19T03:44:23.767Z,101454.52
2023-05-19T03:46:51.940Z,101456.24
2023-05-19T03:49:19.800Z,101462.30
2023-05-19T03:51:51.768Z,101466.33
2023-05-19T03:54:21.265Z,101470.48
2023-05-19T03:56:49.169Z,101464.33
2023-05-19T03:59:17.168Z,101464.04
2023-05-19T04:01:45.326Z,101463.85
2023-05-19T04:04:13.282Z,101465.36
2023-05-19T04:06:41.282Z,101465.57
2023-05-19T04:09:16.262Z,101468.51
2023-05-19T04:11:44.308Z,101471.25
2023-05-19T04:14:12.674Z,101472.86
2023-05-19T04:16:40.616Z,101475.03
2023-05-19T04:19:08.616Z,101476.77
2023-05-19T04:21:36.769Z,101477.35
2023-05-19T04:24:06.691Z,101474.31
2023-05-19T04:26:34.757Z,101473.70
2023-05-19T04:29:04.834Z,101470.44
2023-05-19T04:31:34.574Z,101471.50
2023-05-19T04:34:02.696Z,101475.92
2023-05-19T04:36:31.522Z,101470.59
2023-05-19T04:39:02.895Z,101466.98
2023-05-19T04:41:30.812Z,101469.95
2023-05-19T04:43:58.861Z,101467.17
2023-05-19T04:46:27.042Z,101468.10
2023-05-19T04:48:55.664Z,101472.00
2023-05-19T04:51:29.806Z,101473.39
2023-05-19T04:53:58.445Z,101477.88
2023-05-19T04:56:27.615Z,101478.02
2023-05-19T04:58:55.417Z,101478.41
2023-05-19T05:01:26.263Z,101481.92
2023-05-19T05:03:55.741Z,101479.42
2023-05-19T05:06:23.683Z,101480.39
2023-05-19T05:08:52.476Z,101482.42
2023-05-19T05:11:20.672Z,101480.38
2023-05-19T05:13:49.165Z,101484.64
2023-05-19T05:16:17.513Z,101484.21
2023-05-19T05:18:47.110Z,101488.27
2023-05-19T05:21:15.162Z,101485.76
2023-05-19T05:23:43.318Z,101488.97
2023-05-19T05:26:17.683Z,101488.73
2023-05-19T05:28:46.064Z,101490.21
2023-05-19T05:31:14.018Z,101487.58
2023-05-19T05:33:43.371Z,101484.79
2023-05-19T05:36:11.401Z,101486.00
2023-05-19T05:38:39.240Z,101485.71
2023-05-19T05:41:09.665Z,101487.76
2023-05-19T05:43:37.802Z,101482.44
2023-05-19T05:46:05.823Z,101475.34
2023-05-19T05:48:34.194Z,101479.48
2023-05-19T05:51:02.218Z,101476.48
2023-05-19T05:53:32.439Z,101478.52
2023-05-19T05:56:00.653Z,101483.55
2023-05-19T05:58:28.945Z,101482.39
2023-05-19T06:00:57.965Z,101481.36
2023-05-19T06:03:26.142Z,101475.39
2023-05-19T06:05:54.175Z,101480.48
2023-05-19T06:08:22.271Z,101481.51
2023-05-19T06:10:50.220Z,101484.14
2023-05-19T06:13:22.425Z,101485.55
2023-05-19T06:15:51.310Z,101492.58
2023-05-19T06:18:19.329Z,101494.59
2023-05-19T06:20:47.206Z,101500.42
2023-05-19T06:23:15.049Z,101501.81
2023-05-19T06:25:43.051Z,101499.45
2023-05-19T06:28:11.197Z,101502.51
2023-05-19T06:30:39.111Z,101503.99
2023-05-19T06:33:06.998Z,101503.48
2023-05-19T06:35:34.996Z,101498.77
2023-05-19T06:38:02.906Z,101496.52
2023-05-19T06:40:31.119Z,101503.41
2023-05-19T06:42:59.095Z,101501.14
2023-05-19T06:45:27.007Z,101503.59
2023-05-19T06:47:55.763Z,101503.38
2023-05-19T06:50:23.504Z,101505.27
2023-05-19T06:52:51.611Z,101504.38
2023-05-19T06:55:19.726Z,101505.46
2023-05-19T06:57:47.717Z,101508.85
2023-05-19T07:00:18.830Z,101506.32
2023-05-19T07:02:48.666Z,101507.27
2023-05-19T07:05:16.781Z,101510.28
2023-05-19T07:07:44.885Z,101511.03
2023-05-19T07:10:12.881Z,101513.14
2023-05-19T07:12:40.726Z,101511.73
2023-05-19T07:15:08.664Z,101517.39
2023-05-19T07:17:36.833Z,101518.67
2023-05-19T07:20:07.804Z,101517.61
2023-05-19T07:22:36.725Z,101515.08
2023-05-19T07:25:04.845Z,101516.72
2023-05-19T07:27:32.701Z,101516.60
2023-05-19T07:30:00.427Z,101518.08
2023-05-19T07:32:28.454Z,101519.08
2023-05-19T07:34:56.548Z,101519.27
2023-05-19T07:37:24.372Z,101521.13
2023-05-19T07:39:52.415Z,101519.98
2023-05-19T07:42:20.320Z,101517.95
2023-05-19T07:44:48.174Z,101516.91
2023-05-19T07:47:16.244Z,101512.55
2023-05-19T07:49:44.189Z,101516.55
2023-05-19T07:52:12.017Z,101514.40
2023-05-19T07:54:40.263Z,101517.71
2023-05-19T07:57:08.175Z,101519.21
2023-05-19T07:59:36.030Z,101515.71
2023-05-19T08:02:04.069Z,101520.17
2023-05-19T08:04:32.270Z,101516.60
2023-05-19T08:07:00.225Z,101519.60
2023-05-19T08:09:28.276Z,101519.72
2023-05-19T08:11:56.351Z,101519.75
2023-05-19T08:14:24.055Z,101515.70
2023-05-19T08:16:52.256Z,101518.52
2023-05-19T08:19:20.146Z,101518.73
2023-05-19T08:21:48.636Z,101518.63
2023-05-19T08:24:16.645Z,101521.43
2023-05-19T08:26:44.782Z,101515.89
2023-05-19T08:29:12.770Z,101517.57
2023-05-19T08:31:40.990Z,101517.33
2023-05-19T08:34:09.570Z,101511.16
2023-05-19T08:36:37.500Z,101511.08
2023-05-19T08:39:05.530Z,101511.54
2023-05-19T08:41:33.313Z,101509.51
2023-05-19T08:44:01.391Z,101510.56
2023-05-19T08:46:29.526Z,101514.31
2023-05-19T08:49:10.308Z,101510.73
2023-05-19T08:51:44.735Z,101513.86
2023-05-19T08:54:16.111Z,101508.67
2023-05-19T08:56:45.650Z,101509.66
2023-05-19T08:59:15.411Z,101508.42
2023-05-19T09:01:45.988Z,101510.36
2023-05-19T09:04:14.558Z,101509.52
2023-05-19T09:06:45.471Z,101505.81
2023-05-19T09:09:13.640Z,101506.49
2023-05-19T09:11:46.252Z,101507.70
2023-05-19T09:14:14.110Z,101505.41
2023-05-19T09:16:42.138Z,101509.55
2023-05-19T09:19:15.720Z,101504.42
2023-05-19T09:21:45.910Z,101503.25
2023-05-19T09:24:14.037Z,101501.86
2023-05-19T09:26:42.879Z,101502.89
2023-05-19T09:29:15.731Z,101500.30
2023-05-19T09:31:52.832Z,101499.48
2023-05-19T09:34:22.513Z,101496.80
2023-05-19T09:36:51.933Z,101496.39
2023-05-19T09:39:21.699Z,101497.75
2023-05-19T09:41:58.730Z,101497.16
2023-05-19T09:44:31.391Z,101498.42
2023-05-19T09:47:00.298Z,101492.66
2023-05-19T09:49:30.176Z,101494.29
2023-05-19T09:51:59.905Z,101490.98
2023-05-19T09:54:32.526Z,101493.75
2023-05-19T09:57:01.704Z,101483.60
2023-05-19T09:59:32.989Z,101481.45
2023-05-19T10:02:02.822Z,101474.17
2023-05-19T10:04:31.760Z,101474.55
2023-05-19T10:07:00.986Z,101470.48
2023-05-19T10:09:29.885Z,101465.23
2023-05-19T10:11:59.269Z,101465.33
2023-05-19T10:14:29.430Z,101466.36
2023-05-19T10:16:59.501Z,101465.21
2023-05-19T10:19:29.213Z,101468.02
2023-05-19T10:21:57.317Z,101459.80
2023-05-19T10:24:25.317Z,101462.41
2023-05-19T10:27:05.775Z,101458.72
2023-05-19T10:29:36.753Z,101458.41
2023-05-19T10:32:12.065Z,101452.81
2023-05-19T10:34:50.536Z,101452.33
2023-05-19T10:37:31.448Z,101457.17
2023-05-19T10:39:59.568Z,101455.41
2023-05-19T10:42:52.539Z,101455.27
2023-05-19T10:45:22.629Z,101459.40
2023-05-19T10:47:51.732Z,101460.86
2023-05-19T10:50:20.536Z,101461.03
2023-05-19T10:52:57.110Z,101462.70
2023-05-19T10:55:48.243Z,101460.83
2023-05-19T10:58:16.718Z,101465.64
2023-05-19T11:00:44.465Z,101462.80
2023-05-19T11:03:16.699Z,101464.58
2023-05-19T11:05:46.503Z,101463.83
2023-05-19T11:08:14.898Z,101460.76
2023-05-19T11:10:46.569Z,101465.10
2023-05-19T11:13:22.632Z,101466.20
2023-05-19T11:15:51.380Z,101461.88
2023-05-19T11:18:19.937Z,101459.99
2023-05-19T11:20:58.581Z,101458.63
2023-05-19T11:23:26.989Z,101460.03
2023-05-19T11:25:54.944Z,101462.27
2023-05-19T11:28:29.378Z,101462.17
2023-05-19T11:30:59.262Z,101461.64
2023-05-19T11:33:30.150Z,101461.84
2023-05-19T11:35:58.769Z,101463.45
2023-05-19T11:38:28.454Z,101467.54
2023-05-19T11:40:56.686Z,101462.65
2023-05-19T11:43:26.126Z,101462.42
2023-05-19T11:45:55.007Z,101461.73
2023-05-19T11:48:23.747Z,101462.86
2023-05-19T11:50:52.644Z,101463.51
2023-05-19T11:53:21.113Z,101465.67
2023-05-19T11:55:49.816Z,101463.98
2023-05-19T11:58:18.521Z,101461.94
2023-05-19T12:00:47.668Z,101462.72
2023-05-19T12:03:17.758Z,101461.95
2023-05-19T12:05:48.937Z,101463.48
2023-05-19T12:08:18.888Z,101458.50
2023-05-19T12:10:53.022Z,101463.39
2023-05-19T12:13:22.961Z,101459.09
2023-05-19T12:15:53.241Z,101458.15
2023-05-19T12:18:21.498Z,101452.14
2023-05-19T12:20:49.662Z,101457.52
2023-05-19T12:23:17.873Z,101455.14
2023-05-19T12:25:45.854Z,101455.85
2023-05-19T12:28:13.958Z,101457.85
2023-05-19T12:30:48.151Z,101459.86
2023-05-19T12:33:16.593Z,101458.87
2023-05-19T12:35:44.572Z,101459.84
2023-05-19T12:38:14.589Z,101459.91
2023-05-19T12:40:43.900Z,101459.30
2023-05-19T12:43:25.310Z,101460.70
2023-05-19T12:45:53.538Z,101460.54
2023-05-19T12:48:24.911Z,101464.40
2023-05-19T12:50:56.038Z,101461.33
2023-05-19T12:53:27.019Z,101463.38
2023-05-19T12:55:56.057Z,101462.77
2023-05-19T12:58:24.517Z,101464.27
2023-05-19T13:00:58.595Z,101464.32
2023-05-19T13:03:26.456Z,101458.47
2023-05-19T13:05:54.571Z,101463.14
2023-05-19T13:08:24.089Z,101459.98
2023-05-19T13:10:52.315Z,101459.54
2023-05-19T13:13:20.080Z,101455.91
2023-05-19T13:15:49.286Z,101455.76
2023-05-19T13:18:17.543Z,101457.38
2023-05-19T13:20:46.981Z,101458.17
2023-05-19T13:23:15.180Z,101457.42
2023-05-19T13:25:43.286Z,101456.04
2023-05-19T13:28:11.330Z,101452.84
2023-05-19T13:30:41.020Z,101451.33
2023-05-19T13:33:08.974Z,101455.36
2023-05-19T13:35:37.996Z,101451.58
2023-05-19T13:38:07.174Z,101450.24
2023-05-19T13:40:35.471Z,101448.75
2023-05-19T13:43:04.164Z,101447.91
2023-05-19T13:45:32.375Z,101447.36
2023-05-19T13:48:00.463Z,101445.97
2023-05-19T13:50:28.611Z,101451.75
2023-05-19T13:52:56.528Z,101451.73
2023-05-19T13:55:26.566Z,101448.96
2023-05-19T13:57:54.516Z,101446.80
2023-05-19T14:00:22.622Z,101447.11
2023-05-19T14:02:50.608Z,101449.30
2023-05-19T14:05:18.916Z,101447.77
2023-05-19T14:07:47.162Z,101447.25
2023-05-19T14:10:15.081Z,101446.12
2023-05-19T14:13:04.925Z,101446.15
2023-05-19T14:15:34.634Z,101445.59
2023-05-19T14:18:04.655Z,101448.05
2023-05-19T14:20:32.886Z,101444.52
2023-05-19T14:23:00.932Z,101448.08
2023-05-19T14:25:28.653Z,101444.52
2023-05-19T14:27:56.778Z,101444.67
2023-05-19T14:30:24.573Z,101440.86
2023-05-19T14:32:52.766Z,101438.85
2023-05-19T14:35:21.179Z,101438.58
2023-05-19T14:37:49.193Z,101437.80
2023-05-19T14:40:17.086Z,101439.28
2023-05-19T14:42:45.030Z,101436.42
2023-05-19T14:45:12.982Z,101432.38
2023-05-19T14:47:40.919Z,101437.95
2023-05-19T14:50:09.039Z,101440.34
2023-05-19T14:52:36.924Z,101440.79
2023-05-19T14:55:05.396Z,101442.14
2023-05-19T14:57:33.232Z,101431.31
2023-05-19T15:00:01.073Z,101431.45
2023-05-19T15:02:29.722Z,101432.73
2023-05-19T15:04:57.835Z,101433.83
2023-05-19T15:07:26.214Z,101432.86
2023-05-19T15:09:54.263Z,101434.20
2023-05-19T15:12:22.211Z,101438.54
2023-05-19T15:14:50.127Z,101436.23
2023-05-19T15:17:18.153Z,101435.23
2023-05-19T15:19:46.289Z,101433.68
2023-05-19T15:22:14.492Z,101430.20
2023-05-19T15:24:42.562Z,101428.04
2023-05-19T15:27:10.882Z,101426.29
2023-05-19T15:29:38.795Z,101426.47
2023-05-19T15:32:07.163Z,101421.53
2023-05-19T15:34:35.088Z,101421.25
2023-05-19T15:37:02.924Z,101422.97
2023-05-19T15:39:31.564Z,101418.97
2023-05-19T15:41:59.510Z,101417.92
2023-05-19T15:44:29.001Z,101414.91
2023-05-19T15:46:57.304Z,101416.69
2023-05-19T15:49:25.338Z,101415.56
2023-05-19T15:51:53.453Z,101408.83
2023-05-19T15:54:21.620Z,101412.67
2023-05-19T15:56:49.521Z,101407.08
2023-05-19T15:59:17.662Z,101411.44
2023-05-19T16:01:45.593Z,101408.90
2023-05-19T16:04:13.691Z,101410.55
2023-05-19T16:06:41.699Z,101410.14
2023-05-19T16:09:09.587Z,101410.33
2023-05-19T16:11:37.327Z,101406.38
2023-05-19T16:14:05.332Z,101410.70
2023-05-19T16:16:33.360Z,101410.50
2023-05-19T16:19:01.460Z,101411.56
2023-05-19T16:21:29.276Z,101410.05
2023-05-19T16:23:57.209Z,101403.80
2023-05-19T16:26:24.992Z,101406.98
2023-05-19T16:28:52.890Z,101403.67
2023-05-19T16:31:20.697Z,101403.98
2023-05-19T16:33:48.617Z,101407.26
2023-05-19T16:36:16.547Z,101409.55
2023-05-19T16:38:44.741Z,101404.83
2023-05-19T16:41:12.701Z,101407.65
2023-05-19T16:43:40.477Z,101406.56
2023-05-19T16:46:10.081Z,101406.89
2023-05-19T16:48:38.238Z,101401.67
2023-05-19T16:51:06.424Z,101401.87
2023-05-19T16:53:34.306Z,101406.38
2023-05-19T16:56:02.431Z,101401.88
2023-05-19T16:58:31.017Z,101402.36
2023-05-19T17:00:59.158Z,101404.45
2023-05-19T17:03:27.492Z,101406.86
2023-05-19T17:05:55.728Z,101408.05
2023-05-19T17:08:23.558Z,101406.34
2023-05-19T17:10:51.500Z,101407.53
2023-05-19T17:13:19.456Z,101406.70
2023-05-19T17:15:52.573Z,101410.74
2023-05-19T17:18:20.419Z,101409.55
2023-05-19T17:20:48.579Z,101409.34
2023-05-19T17:23:17.100Z,101413.10
2023-05-19T17:25:44.894Z,101410.99
2023-05-19T17:28:12.809Z,101409.13
2023-05-19T17:30:42.932Z,101413.61
2023-05-19T17:33:11.147Z,101414.92
2023-05-19T17:35:39.192Z,101419.73
2023-05-19T17:38:07.231Z,101423.85
2023-05-19T17:40:36.938Z,101423.13
2023-05-19T17:43:06.190Z,101425.17
2023-05-19T17:45:34.430Z,101423.71
2023-05-19T17:48:02.385Z,101419.16
2023-05-19T17:50:30.602Z,101426.71
2023-05-19T17:52:58.819Z,101427.99
2023-05-19T17:55:30.135Z,101429.09
2023-05-19T17:57:58.429Z,101431.89
2023-05-19T18:00:26.641Z,101427.67
2023-05-19T18:02:56.958Z,101431.15
2023-05-19T18:05:25.916Z,101427.86
2023-05-19T18:07:57.350Z,101426.85
2023-05-19T18:10:26.379Z,101423.68
2023-05-19T18:12:54.192Z,101420.07
2023-05-19T18:15:22.165Z,101415.02
2023-05-19T18:17:50.206Z,101418.06
2023-05-19T18:20:18.457Z,101417.34
2023-05-19T18:22:47.137Z,101417.84
2023-05-19T18:25:15.053Z,101416.25
2023-05-19T18:27:43.953Z,101417.61
2023-05-19T18:30:12.367Z,101417.91
2023-05-19T18:32:40.098Z,101415.58
2023-05-19T18:35:09.183Z,101412.58
2023-05-19T18:37:37.263Z,101409.81
2023-05-19T18:40:05.894Z,101410.05
2023-05-19T18:42:33.955Z,101414.02
2023-05-19T18:45:01.788Z,101411.77
2023-05-19T18:47:29.931Z,101411.48
2023-05-19T18:49:57.818Z,101416.11
2023-05-19T18:52:27.159Z,101419.62
2023-05-19T18:54:55.162Z,101421.29
2023-05-19T18:57:23.204Z,101427.65
2023-05-19T18:59:51.209Z,101429.01
2023-05-19T19:02:19.124Z,101431.67
2023-05-19T19:04:47.070Z,101431.77
2023-05-19T19:07:15.275Z,101434.93
2023-05-19T19:09:43.967Z,101435.20
2023-05-19T19:12:11.989Z,101440.33
2023-05-19T19:14:39.960Z,101444.80
2023-05-19T19:17:08.172Z,101448.70
2023-05-19T19:19:36.539Z,101449.98
2023-05-19T19:22:04.782Z,101453.28
2023-05-19T19:24:32.866Z,101456.81
2023-05-19T19:27:00.942Z,101452.52
2023-05-19T19:29:28.962Z,101451.71
2023-05-19T19:31:57.045Z,101454.11
2023-05-19T19:34:25.128Z,101455.05
2023-05-19T19:36:52.907Z,101455.24
2023-05-19T19:39:20.708Z,101455.70
2023-05-19T19:41:48.635Z,101455.35
2023-05-19T19:44:16.683Z,101454.17
2023-05-19T19:46:44.918Z,101452.60
2023-05-19T19:49:13.082Z,101457.00
2023-05-19T19:51:41.144Z,101458.51
2023-05-19T19:54:09.114Z,101455.41
2023-05-19T19:56:36.967Z,101454.80
2023-05-19T19:59:04.872Z,101455.45
2023-05-19T20:01:33.807Z,101455.96
2023-05-19T20:04:02.155Z,101457.19
2023-05-19T20:06:30.967Z,101457.33
2023-05-19T20:08:59.329Z,101459.56
2023-05-19T20:11:27.373Z,101460.81
2023-05-19T20:13:55.266Z,101463.67
2023-05-19T20:16:24.335Z,101468.81
2023-05-19T20:18:52.307Z,101469.41
2023-05-19T20:21:20.472Z,101469.06
2023-05-19T20:23:50.591Z,101466.55
2023-05-19T20:26:18.419Z,101465.74
2023-05-19T20:28:46.673Z,101464.18
2023-05-19T20:31:14.423Z,101462.23
2023-05-19T20:33:42.508Z,101463.58
2023-05-19T20:36:11.172Z,101468.20
2023-05-19T20:38:39.007Z,101466.06
2023-05-19T20:41:07.722Z,101469.95
2023-05-19T20:43:38.343Z,101470.06
2023-05-19T20:46:06.187Z,101469.25
2023-05-19T20:48:34.170Z,101468.61
2023-05-19T20:51:02.317Z,101468.93
2023-05-19T20:53:30.146Z,101465.19
2023-05-19T20:55:58.312Z,101462.29
2023-05-19T20:58:30.333Z,101458.59
2023-05-19T21:00:58.446Z,101459.86
2023-05-19T21:03:27.332Z,101458.62
2023-05-19T21:05:55.832Z,101457.58
2023-05-19T21:08:25.171Z,101456.03
2023-05-19T21:10:53.205Z,101457.67
2023-05-19T21:13:21.283Z,101457.02
2023-05-19T21:15:49.423Z,101454.11
2023-05-19T21:18:17.301Z,101454.61
2023-05-19T21:20:45.107Z,101452.11
2023-05-19T21:23:13.011Z,101454.06
2023-05-19T21:25:41.507Z,101455.77
2023-05-19T21:28:10.449Z,101448.85
2023-05-19T21:30:38.207Z,101453.23
2023-05-19T21:33:06.074Z,101452.91
2023-05-19T21:35:34.099Z,101454.69
2023-05-19T21:38:11.978Z,101454.03
2023-05-19T21:40:50.274Z,101450.57
2023-05-19T21:43:18.228Z,101449.81
2023-05-19T21:45:45.922Z,101453.21
2023-05-19T21:48:14.001Z,101453.41
2023-05-19T21:50:41.863Z,101453.48
2023-05-19T21:53:09.625Z,101452.77
2023-05-19T21:55:38.035Z,101454.88
2023-05-19T21:58:06.270Z,101453.36
2023-05-19T22:00:34.427Z,101447.53
2023-05-19T22:03:02.622Z,101445.91
2023-05-19T22:05:31.325Z,101444.95
2023-05-19T22:07:59.177Z,101445.91
2023-05-19T22:10:27.496Z,101445.59
2023-05-19T22:12:55.650Z,101441.52
2023-05-19T22:15:23.657Z,101442.44
2023-05-19T22:17:51.874Z,101442.19
2023-05-19T22:20:19.912Z,101443.96
2023-05-19T22:22:47.656Z,101443.93
2023-05-19T22:25:16.053Z,101438.85
2023-05-19T22:27:43.764Z,101438.16
2023-05-19T22:30:12.489Z,101434.55
2023-05-19T22:32:40.555Z,101430.73
2023-05-19T22:35:08.505Z,101428.83
2023-05-19T22:37:36.603Z,101428.25
2023-05-19T22:40:04.813Z,101424.66
2023-05-19T22:42:32.717Z,101420.17
2023-05-19T22:45:00.819Z,101419.09
2023-05-19T22:47:29.849Z,101418.17
2023-05-19T22:49:57.648Z,101420.93
2023-05-19T22:52:26.069Z,101419.15
2023-05-19T22:54:53.956Z,101418.37
2023-05-19T22:57:21.695Z,101419.24
2023-05-19T22:59:49.519Z,101420.15
2023-05-19T23:02:18.484Z,101418.77
2023-05-19T23:04:46.426Z,101422.73
2023-05-19T23:07:17.152Z,101425.17
2023-05-19T23:09:45.118Z,101427.06
2023-05-19T23:12:12.945Z,101430.16
2023-05-19T23:14:40.954Z,101427.61
2023-05-19T23:17:08.885Z,101427.53
2023-05-19T23:19:37.196Z,101424.92
2023-05-19T23:22:05.262Z,101423.33
2023-05-19T23:24:33.234Z,101422.36
2023-05-19T23:27:01.263Z,101422.76
2023-05-19T23:29:29.290Z,101422.77
2023-05-19T23:31:57.105Z,101422.02
2023-05-19T23:34:25.083Z,101417.94
2023-05-19T23:36:53.347Z,101415.56
2023-05-19T23:39:22.199Z,101414.23
2023-05-19T23:41:50.080Z,101412.48
2023-05-19T23:44:18.508Z,101412.34
2023-05-19T23:46:46.625Z,101408.62
2023-05-19T23:49:14.653Z,101408.88
2023-05-19T23:51:42.544Z,101414.46
2023-05-19T23:54:10.385Z,101413.59
2023-05-19T23:56:38.360Z,101412.52
2023-05-19T23:59:06.503Z,101412.64
